createdAt,value
2018-05-17T00:00:26.051Z,20.92
2018-05-17T00:02:54.458Z,22.75
2018-05-17T00:05:22.813Z,21.58
2018-05-17T00:07:50.468Z,21.33
2018-05-17T00:10:18.602Z,21.58
2018-05-17T00:12:46.194Z,20.80
2018-05-17T00:15:14.529Z,19.70
2018-05-17T00:17:42.120Z,22.30
2018-05-17T00:20:09.681Z,21.55
2018-05-17T00:22:37.275Z,20.95
2018-05-17T00:25:04.843Z,19.55
2018-05-17T00:27:34.381Z,20.83
2018-05-17T00:30:02.738Z,23.23
2018-05-17T00:32:30.374Z,22.40
2018-05-17T00:34:58.035Z,21.58
2018-05-17T00:37:25.688Z,20.55
2018-05-17T00:39:54.079Z,20.23
2018-05-17T00:42:22.442Z,19.45
2018-05-17T00:44:50.017Z,21.77
2018-05-17T00:47:17.619Z,23.65
2018-05-17T00:49:45.969Z,23.08
2018-05-17T00:52:13.571Z,23.52
2018-05-17T00:54:41.177Z,21.95
2018-05-17T00:57:08.798Z,24.10
2018-05-17T00:59:36.401Z,22.13
2018-05-17T01:02:04.793Z,23.00
2018-05-17T01:04:33.149Z,21.98
2018-05-17T01:07:00.742Z,21.77
2018-05-17T01:09:28.338Z,22.25
2018-05-17T01:11:56.674Z,21.27
2018-05-17T01:14:24.253Z,19.42
2018-05-17T01:16:51.818Z,22.75
2018-05-17T01:19:19.411Z,24.55
2018-05-17T01:21:46.985Z,24.73
2018-05-17T01:24:14.585Z,25.98
2018-05-17T01:26:42.945Z,23.62
2018-05-17T01:29:11.261Z,23.00
2018-05-17T01:31:38.883Z,25.48
2018-05-17T01:34:06.485Z,24.73
2018-05-17T01:36:34.077Z,24.15
2018-05-17T01:39:01.674Z,26.83
2018-05-17T01:41:30.006Z,26.20
2018-05-17T01:43:57.592Z,27.05
2018-05-17T01:46:25.150Z,26.30
2018-05-17T01:48:53.499Z,23.83
2018-05-17T01:51:21.061Z,24.20
2018-05-17T01:53:49.413Z,24.45
2018-05-17T01:56:16.982Z,23.30
2018-05-17T01:58:44.589Z,23.50
2018-05-17T02:01:13.598Z,21.75
2018-05-17T02:03:41.215Z,21.87
2018-05-17T02:06:08.844Z,23.85
2018-05-17T02:08:37.241Z,24.02
2018-05-17T02:11:04.836Z,25.62
2018-05-17T02:13:32.418Z,25.55
2018-05-17T02:16:00.016Z,26.10
2018-05-17T02:18:28.385Z,26.62
2018-05-17T02:20:56.004Z,26.95
2018-05-17T02:23:23.573Z,28.98
2018-05-17T02:25:51.166Z,24.58
2018-05-17T02:28:19.499Z,25.05
2018-05-17T02:30:47.077Z,24.58
2018-05-17T02:33:14.658Z,24.25
2018-05-17T02:35:42.267Z,25.80
2018-05-17T02:38:10.627Z,28.02
2018-05-17T02:40:38.263Z,28.95
2018-05-17T02:43:05.850Z,27.67
2018-05-17T02:45:33.454Z,27.27
2018-05-17T02:48:01.025Z,25.77
2018-05-17T02:50:28.612Z,25.75
2018-05-17T02:52:56.189Z,26.83
2018-05-17T02:55:23.778Z,27.98
2018-05-17T02:57:52.113Z,28.58
2018-05-17T03:00:19.690Z,29.00
2018-05-17T03:02:47.264Z,28.70
2018-05-17T03:05:14.865Z,27.85
2018-05-17T03:07:42.458Z,29.95
2018-05-17T03:10:10.109Z,31.58
2018-05-17T03:12:37.718Z,29.60
2018-05-17T03:15:05.714Z,32.40
2018-05-17T03:17:33.305Z,34.00
2018-05-17T03:20:00.896Z,33.60
2018-05-17T03:22:28.465Z,33.85
2018-05-17T03:24:56.029Z,34.20
2018-05-17T03:27:24.474Z,34.35
2018-05-17T03:29:52.805Z,36.60
2018-05-17T03:32:20.394Z,34.97
2018-05-17T03:34:47.962Z,34.63
2018-05-17T03:37:15.550Z,36.67
2018-05-17T03:39:43.122Z,39.22
2018-05-17T03:42:10.774Z,39.50
2018-05-17T03:44:38.361Z,44.25
2018-05-17T03:47:05.973Z,42.80
2018-05-17T03:49:33.542Z,51.05
2018-05-17T03:52:01.905Z,54.80
2018-05-17T03:54:29.479Z,58.78
2018-05-17T03:56:57.079Z,61.42
2018-05-17T03:59:25.422Z,64.03
2018-05-17T04:02:05.870Z,68.97
2018-05-17T04:04:45.117Z,70.70
2018-05-17T04:07:14.979Z,84.72
2018-05-17T04:09:42.574Z,93.50
2018-05-17T04:12:10.179Z,95.35
2018-05-17T04:14:37.793Z,93.45
2018-05-17T04:17:05.444Z,96.10
2018-05-17T04:19:33.017Z,96.60
2018-05-17T04:22:00.606Z,101.15
2018-05-17T04:24:28.173Z,99.07
2018-05-17T04:26:55.830Z,102.90
2018-05-17T04:29:23.401Z,107.47
2018-05-17T04:31:50.989Z,102.90
2018-05-17T04:34:18.553Z,110.93
2018-05-17T04:36:46.153Z,105.00
2018-05-17T04:39:13.733Z,102.82
2018-05-17T04:41:41.318Z,107.55
2018-05-17T04:44:09.718Z,104.45
2018-05-17T04:46:38.755Z,107.18
2018-05-17T04:49:06.368Z,100.43
2018-05-17T04:51:33.959Z,104.47
2018-05-17T04:54:02.333Z,104.82
2018-05-17T04:56:29.919Z,104.78
2018-05-17T04:58:57.505Z,96.47
2018-05-17T05:01:25.838Z,88.53
2018-05-17T05:03:53.422Z,89.68
2018-05-17T05:06:20.991Z,86.70
2018-05-17T05:08:50.090Z,85.32
2018-05-17T05:11:17.653Z,76.80
2018-05-17T05:13:45.247Z,83.05
2018-05-17T05:16:12.825Z,79.22
2018-05-17T05:18:40.436Z,82.10
2018-05-17T05:21:09.843Z,75.25
2018-05-17T05:23:37.482Z,79.03
2018-05-17T05:26:05.070Z,80.57
2018-05-17T05:28:32.657Z,70.03
2018-05-17T05:31:00.231Z,75.97
2018-05-17T05:33:27.822Z,74.93
2018-05-17T05:35:56.158Z,74.78
2018-05-17T05:38:23.738Z,80.45
2018-05-17T05:40:51.301Z,73.65
2018-05-17T05:43:18.928Z,77.35
2018-05-17T05:45:46.473Z,74.20
2018-05-17T05:48:14.090Z,76.40
2018-05-17T05:50:41.675Z,76.25
2018-05-17T05:53:09.274Z,72.28
2018-05-17T05:55:37.649Z,72.82
2018-05-17T05:58:05.221Z,68.45
2018-05-17T06:00:33.018Z,62.35
2018-05-17T06:03:00.610Z,64.32
2018-05-17T06:05:28.251Z,65.55
2018-05-17T06:07:55.963Z,68.40
2018-05-17T06:10:23.598Z,65.20
2018-05-17T06:12:51.169Z,64.30
2018-05-17T06:15:18.763Z,58.65
2018-05-17T06:17:46.353Z,63.55
2018-05-17T06:20:13.973Z,58.75
2018-05-17T06:22:41.566Z,60.12
2018-05-17T06:25:09.226Z,60.75
2018-05-17T06:27:36.873Z,57.35
2018-05-17T06:30:04.476Z,59.05
2018-05-17T06:32:32.059Z,62.35
2018-05-17T06:35:00.848Z,57.45
2018-05-17T06:37:28.410Z,57.62
2018-05-17T06:39:55.998Z,56.30
2018-05-17T06:42:23.561Z,55.28
2018-05-17T06:44:51.147Z,57.38
2018-05-17T06:47:18.710Z,60.12
2018-05-17T06:49:46.302Z,57.90
2018-05-17T06:52:13.886Z,54.25
2018-05-17T06:54:41.490Z,56.50
2018-05-17T06:57:10.018Z,51.47
2018-05-17T06:59:37.661Z,51.50
2018-05-17T07:02:05.262Z,45.20
2018-05-17T07:04:32.865Z,42.33
2018-05-17T07:07:00.430Z,46.28
2018-05-17T07:09:27.993Z,48.50
2018-05-17T07:11:55.578Z,47.15
2018-05-17T07:14:23.142Z,45.20
2018-05-17T07:16:51.693Z,44.85
2018-05-17T07:19:20.022Z,41.85
2018-05-17T07:21:47.604Z,42.90
2018-05-17T07:24:16.034Z,37.33
2018-05-17T07:26:43.590Z,37.55
2018-05-17T07:29:11.166Z,38.40
2018-05-17T07:31:38.807Z,36.20
2018-05-17T07:34:06.440Z,38.03
2018-05-17T07:36:34.042Z,39.45
2018-05-17T07:39:01.607Z,43.92
2018-05-17T07:41:29.185Z,44.40
2018-05-17T07:43:56.750Z,47.00
2018-05-17T07:46:24.334Z,46.37
2018-05-17T07:48:51.901Z,48.58
2018-05-17T07:51:19.488Z,45.30
2018-05-17T07:53:47.058Z,49.67
2018-05-17T07:56:14.668Z,44.65
2018-05-17T07:58:42.265Z,45.40
2018-05-17T08:01:10.788Z,40.72
2018-05-17T08:03:38.678Z,44.50
2018-05-17T08:06:06.354Z,45.30
2018-05-17T08:08:33.949Z,42.65
2018-05-17T08:11:01.625Z,45.83
2018-05-17T08:13:29.190Z,45.47
2018-05-17T08:15:56.769Z,48.30
2018-05-17T08:18:24.330Z,45.97
2018-05-17T08:20:51.933Z,48.40
2018-05-17T08:23:19.498Z,49.10
2018-05-17T08:25:47.066Z,43.95
2018-05-17T08:28:14.667Z,47.58
2018-05-17T08:30:43.014Z,42.67
2018-05-17T08:33:10.618Z,43.10
2018-05-17T08:35:38.986Z,42.10
2018-05-17T08:38:06.618Z,38.80
2018-05-17T08:40:34.195Z,42.58
2018-05-17T08:43:02.653Z,40.78
2018-05-17T08:45:30.264Z,43.78
2018-05-17T08:47:57.909Z,48.25
2018-05-17T08:50:26.538Z,49.20
2018-05-17T08:52:54.161Z,46.75
2018-05-17T08:55:22.505Z,44.53
2018-05-17T08:57:50.094Z,44.63
2018-05-17T09:00:17.654Z,41.65
2018-05-17T09:02:45.234Z,39.97
2018-05-17T09:05:12.794Z,37.08
2018-05-17T09:07:40.378Z,39.00
2018-05-17T09:10:07.960Z,40.80
2018-05-17T09:12:35.558Z,41.55
2018-05-17T09:15:03.163Z,41.83
2018-05-17T09:17:30.765Z,41.63
2018-05-17T09:19:58.366Z,42.45
2018-05-17T09:22:25.998Z,43.78
2018-05-17T09:24:53.563Z,42.70
2018-05-17T09:27:21.165Z,41.95
2018-05-17T09:29:48.731Z,41.47
2018-05-17T09:32:16.313Z,40.92
2018-05-17T09:34:43.874Z,40.10
2018-05-17T09:37:11.438Z,39.88
2018-05-17T09:39:39.030Z,44.03
2018-05-17T09:42:06.600Z,44.53
2018-05-17T09:44:34.193Z,53.90
2018-05-17T09:47:01.783Z,56.15
2018-05-17T09:49:30.148Z,55.80
2018-05-17T09:51:57.740Z,60.45
2018-05-17T09:54:26.230Z,54.60
2018-05-17T09:56:53.914Z,53.10
2018-05-17T09:59:22.274Z,57.33
2018-05-17T10:01:49.847Z,56.90
2018-05-17T10:04:17.433Z,54.13
2018-05-17T10:06:45.001Z,53.72
2018-05-17T10:09:13.338Z,55.90
2018-05-17T10:11:42.826Z,49.95
2018-05-17T10:14:11.171Z,49.85
2018-05-17T10:16:38.785Z,53.92
2018-05-17T10:19:06.365Z,52.90
2018-05-17T10:21:34.741Z,52.53
2018-05-17T10:24:02.329Z,51.45
2018-05-17T10:26:29.938Z,50.95
2018-05-17T10:28:57.553Z,49.28
2018-05-17T10:31:25.145Z,47.53
2018-05-17T10:33:53.862Z,41.75
2018-05-17T10:36:21.490Z,42.88
2018-05-17T10:38:49.053Z,34.60
2018-05-17T10:41:16.641Z,31.45
2018-05-17T10:43:44.209Z,37.50
2018-05-17T10:46:11.818Z,39.53
2018-05-17T10:48:40.174Z,37.45
2018-05-17T10:51:07.816Z,34.10
2018-05-17T10:53:35.434Z,31.60
2018-05-17T10:56:03.811Z,38.17
2018-05-17T10:58:31.409Z,47.70
2018-05-17T11:00:59.750Z,53.22
2018-05-17T11:03:27.337Z,57.30
2018-05-17T11:05:54.902Z,55.78
2018-05-17T11:08:22.494Z,56.40
2018-05-17T11:10:50.087Z,57.72
2018-05-17T11:13:18.549Z,54.92
2018-05-17T11:15:46.982Z,55.70
2018-05-17T11:18:14.618Z,56.75
2018-05-17T11:20:42.202Z,50.25
2018-05-17T11:23:09.790Z,49.67
2018-05-17T11:25:38.908Z,47.08
2018-05-17T11:28:06.504Z,40.42
2018-05-17T11:30:34.070Z,41.33
2018-05-17T11:33:01.761Z,38.60
2018-05-17T11:35:29.253Z,38.65
2018-05-17T11:37:56.846Z,37.53
2018-05-17T11:40:24.418Z,35.13
2018-05-17T11:42:52.034Z,34.22
2018-05-17T11:45:19.708Z,32.33
2018-05-17T11:47:48.150Z,32.05
2018-05-17T11:50:15.762Z,30.27
2018-05-17T11:52:43.362Z,30.52
2018-05-17T11:55:10.933Z,30.02
2018-05-17T11:57:38.533Z,28.75
2018-05-17T12:00:06.138Z,29.52
2018-05-17T12:02:34.584Z,28.17
2018-05-17T12:05:02.163Z,30.27
2018-05-17T12:07:29.883Z,30.25
2018-05-17T12:09:57.470Z,29.55
2018-05-17T12:12:25.066Z,29.92
2018-05-17T12:14:52.658Z,28.62
2018-05-17T12:17:21.469Z,31.83
2018-05-17T12:19:49.145Z,28.38
2018-05-17T12:22:16.722Z,29.80
2018-05-17T12:24:44.396Z,29.42
2018-05-17T12:27:11.965Z,30.00
2018-05-17T12:29:39.570Z,31.15
2018-05-17T12:32:07.909Z,31.50
2018-05-17T12:34:35.614Z,31.27
2018-05-17T12:37:04.009Z,29.65
2018-05-17T12:39:31.605Z,31.87
2018-05-17T12:41:59.169Z,30.70
2018-05-17T12:44:27.530Z,31.08
2018-05-17T12:46:55.102Z,30.33
2018-05-17T12:49:22.702Z,33.72
2018-05-17T12:51:51.035Z,30.53
2018-05-17T12:54:18.622Z,34.10
2018-05-17T12:56:46.238Z,33.17
2018-05-17T12:59:13.860Z,31.87
2018-05-17T13:01:41.442Z,32.05
2018-05-17T13:04:09.039Z,33.72
2018-05-17T13:06:36.637Z,30.80
2018-05-17T13:09:04.919Z,30.88
2018-05-17T13:11:33.249Z,30.27
2018-05-17T13:14:00.843Z,29.37
2018-05-17T13:16:28.945Z,29.07
2018-05-17T13:18:56.545Z,29.10
2018-05-17T13:21:24.958Z,30.17
2018-05-17T13:23:52.554Z,29.90
2018-05-17T13:26:20.236Z,32.05
2018-05-17T13:28:48.514Z,30.55
2018-05-17T13:31:16.109Z,33.85
2018-05-17T13:33:43.683Z,34.70
2018-05-17T13:36:11.283Z,33.80
2018-05-17T13:38:39.609Z,35.77
2018-05-17T13:41:07.217Z,36.87
2018-05-17T13:43:34.787Z,34.47
2018-05-17T13:46:02.387Z,40.97
2018-05-17T13:48:30.720Z,38.87
2018-05-17T13:50:58.322Z,42.20
2018-05-17T13:53:25.914Z,42.92
2018-05-17T13:55:54.322Z,38.40
2018-05-17T13:58:22.680Z,41.10
2018-05-17T14:00:50.325Z,40.20
2018-05-17T14:03:17.911Z,41.83
2018-05-17T14:05:45.497Z,39.47
2018-05-17T14:08:13.060Z,38.87
2018-05-17T14:10:40.646Z,39.57
2018-05-17T14:13:08.226Z,39.63
2018-05-17T14:15:35.910Z,38.20
2018-05-17T14:18:03.474Z,40.40
2018-05-17T14:20:31.202Z,41.77
2018-05-17T14:22:58.841Z,41.00
2018-05-17T14:25:26.414Z,40.90
2018-05-17T14:27:54.762Z,40.57
2018-05-17T14:30:22.334Z,39.07
2018-05-17T14:32:49.918Z,40.20
2018-05-17T14:35:17.494Z,38.90
2018-05-17T14:37:45.226Z,39.40
2018-05-17T14:40:12.824Z,37.87
2018-05-17T14:42:40.421Z,39.93
2018-05-17T14:45:08.011Z,35.63
2018-05-17T14:47:36.349Z,34.17
2018-05-17T14:50:03.939Z,34.37
2018-05-17T14:52:31.526Z,33.70
2018-05-17T14:54:59.090Z,31.50
2018-05-17T14:57:26.677Z,32.30
2018-05-17T14:59:54.243Z,32.87
2018-05-17T15:02:21.837Z,33.60
2018-05-17T15:04:50.173Z,32.13
2018-05-17T15:07:17.790Z,33.27
2018-05-17T15:09:46.400Z,37.07
2018-05-17T15:12:14.848Z,38.33
2018-05-17T15:14:42.453Z,41.93
2018-05-17T15:17:10.099Z,39.30
2018-05-17T15:19:37.682Z,39.40
2018-05-17T15:22:05.273Z,42.60
2018-05-17T15:24:33.622Z,40.13
2018-05-17T15:27:01.212Z,40.10
2018-05-17T15:29:28.783Z,38.80
2018-05-17T15:31:56.374Z,40.20
2018-05-17T15:34:23.938Z,35.20
2018-05-17T15:36:51.534Z,33.33
2018-05-17T15:39:19.878Z,34.57
2018-05-17T15:41:47.516Z,33.60
2018-05-17T15:44:15.098Z,30.33
2018-05-17T15:46:42.736Z,32.33
2018-05-17T15:49:11.894Z,30.60
2018-05-17T15:51:39.521Z,31.10
2018-05-17T15:54:07.945Z,30.27
2018-05-17T15:56:35.441Z,27.67
2018-05-17T15:59:03.034Z,30.83
2018-05-17T16:01:30.603Z,27.40
2018-05-17T16:03:58.193Z,26.27
2018-05-17T16:06:25.752Z,24.63
2018-05-17T16:08:53.342Z,22.83
2018-05-17T16:11:21.669Z,24.87
2018-05-17T16:13:49.268Z,22.37
2018-05-17T16:16:16.850Z,21.73
2018-05-17T16:18:44.518Z,20.60
2018-05-17T16:21:12.113Z,20.70
2018-05-17T16:23:40.489Z,19.50
2018-05-17T16:26:08.074Z,20.83
2018-05-17T16:28:35.689Z,22.30
2018-05-17T16:31:03.261Z,18.67
2018-05-17T16:33:30.845Z,19.40
2018-05-17T16:35:58.415Z,19.20
2018-05-17T16:38:27.649Z,19.77
2018-05-17T16:40:55.222Z,19.57
2018-05-17T16:43:22.814Z,18.13
2018-05-17T16:45:50.386Z,17.93
2018-05-17T16:48:18.076Z,19.80
2018-05-17T16:50:45.699Z,20.53
2018-05-17T16:53:13.349Z,20.77
2018-05-17T16:55:40.981Z,19.13
2018-05-17T16:58:10.255Z,18.60
2018-05-17T17:00:37.833Z,19.53
2018-05-17T17:03:05.468Z,20.60
2018-05-17T17:05:33.800Z,19.87
2018-05-17T17:08:01.367Z,20.27
2018-05-17T17:10:28.953Z,19.33
2018-05-17T17:12:56.524Z,18.80
2018-05-17T17:15:24.125Z,19.50
2018-05-17T17:17:51.837Z,20.33
2018-05-17T17:20:20.165Z,20.43
2018-05-17T17:22:47.861Z,19.23
2018-05-17T17:25:16.108Z,21.20
2018-05-17T17:27:43.692Z,20.20
2018-05-17T17:30:11.355Z,19.90
2018-05-17T17:32:38.982Z,19.27
2018-05-17T17:35:06.638Z,18.83
2018-05-17T17:37:34.310Z,20.00
2018-05-17T17:40:01.887Z,19.60
2018-05-17T17:42:29.778Z,19.53
2018-05-17T17:44:58.182Z,20.03
2018-05-17T17:47:26.556Z,17.60
2018-05-17T17:49:54.320Z,19.20
2018-05-17T17:52:23.386Z,17.10
2018-05-17T17:54:51.132Z,17.07
2018-05-17T17:57:19.605Z,18.07
2018-05-17T17:59:47.167Z,17.50
2018-05-17T18:02:14.758Z,16.30
2018-05-17T18:04:42.330Z,17.63
2018-05-17T18:07:09.917Z,17.97
2018-05-17T18:09:38.257Z,16.77
2018-05-17T18:12:05.950Z,16.47
2018-05-17T18:14:33.546Z,16.93
2018-05-17T18:17:01.946Z,16.67
2018-05-17T18:19:30.311Z,16.07
2018-05-17T18:21:57.893Z,15.00
2018-05-17T18:24:25.622Z,15.97
2018-05-17T18:26:53.938Z,15.30
2018-05-17T18:29:21.510Z,16.57
2018-05-17T18:31:49.110Z,17.63
2018-05-17T18:34:17.469Z,14.50
2018-05-17T18:36:45.205Z,17.58
2018-05-17T18:39:12.903Z,17.77
2018-05-17T18:41:40.497Z,16.17
2018-05-17T18:44:09.598Z,15.73
2018-05-17T18:46:37.190Z,16.65
2018-05-17T18:49:04.891Z,15.25
2018-05-17T18:51:32.426Z,16.65
2018-05-17T18:54:00.028Z,15.50
2018-05-17T18:56:28.383Z,16.50
2018-05-17T18:58:56.001Z,13.20
2018-05-17T19:01:24.511Z,14.80
2018-05-17T19:03:52.367Z,15.10
2018-05-17T19:06:20.073Z,14.43
2018-05-17T19:08:47.764Z,15.40
2018-05-17T19:11:16.075Z,15.00
2018-05-17T19:13:43.677Z,15.57
2018-05-17T19:16:11.326Z,17.20
2018-05-17T19:18:38.942Z,15.00
2018-05-17T19:21:06.514Z,15.43
2018-05-17T19:23:34.113Z,15.95
2018-05-17T19:26:02.087Z,16.42
2018-05-17T19:28:29.995Z,17.92
2018-05-17T19:30:58.462Z,17.40
2018-05-17T19:33:26.551Z,17.02
2018-05-17T19:35:54.242Z,16.75
2018-05-17T19:38:23.845Z,17.92
2018-05-17T19:40:52.443Z,16.98
2018-05-17T19:43:21.250Z,15.73
2018-05-17T19:45:48.868Z,14.10
2018-05-17T19:48:16.729Z,14.73
2018-05-17T19:50:44.301Z,16.55
2018-05-17T19:53:11.974Z,14.57
2018-05-17T19:55:39.565Z,14.27
2018-05-17T19:58:07.939Z,14.45
2018-05-17T20:00:35.536Z,16.45
2018-05-17T20:03:04.385Z,15.00
2018-05-17T20:05:32.581Z,15.82
2018-05-17T20:08:01.234Z,13.82
2018-05-17T20:10:28.882Z,15.98
2018-05-17T20:12:56.468Z,13.70
2018-05-17T20:15:24.838Z,14.93
2018-05-17T20:17:52.427Z,15.95
2018-05-17T20:20:20.781Z,13.62
2018-05-17T20:22:48.360Z,17.05
2018-05-17T20:25:16.726Z,13.40
2018-05-17T20:27:44.299Z,13.60
2018-05-17T20:30:12.799Z,14.10
2018-05-17T20:32:40.369Z,14.63
2018-05-17T20:35:07.970Z,16.90
2018-05-17T20:37:35.537Z,15.05
2018-05-17T20:40:03.127Z,14.45
2018-05-17T20:42:30.701Z,16.33
2018-05-17T20:44:59.790Z,15.30
2018-05-17T20:47:27.365Z,15.48
2018-05-17T20:49:54.949Z,15.07
2018-05-17T20:52:23.395Z,15.55
2018-05-17T20:54:50.978Z,15.63
2018-05-17T20:57:19.451Z,16.70
2018-05-17T20:59:47.231Z,15.20
2018-05-17T21:02:14.815Z,13.57
2018-05-17T21:04:43.105Z,15.57
2018-05-17T21:07:10.695Z,12.30
2018-05-17T21:09:38.280Z,14.13
2018-05-17T21:12:05.957Z,15.30
2018-05-17T21:14:33.522Z,15.47
2018-05-17T21:17:01.378Z,14.63
2018-05-17T21:19:29.001Z,16.35
2018-05-17T21:21:57.389Z,15.65
2018-05-17T21:24:24.970Z,17.75
2018-05-17T21:26:53.333Z,16.95
2018-05-17T21:29:20.902Z,17.37
2018-05-17T21:31:48.578Z,17.05
2018-05-17T21:34:16.147Z,17.35
2018-05-17T21:36:43.725Z,16.10
2018-05-17T21:39:11.296Z,15.35
2018-05-17T21:41:38.890Z,15.65
2018-05-17T21:44:07.249Z,17.90
2018-05-17T21:46:34.974Z,17.02
2018-05-17T21:49:02.546Z,15.82
2018-05-17T21:51:30.910Z,17.40
2018-05-17T21:53:58.574Z,16.48
2018-05-17T21:56:26.163Z,16.62
2018-05-17T21:58:53.742Z,15.77
2018-05-17T22:01:22.110Z,14.87
2018-05-17T22:03:49.705Z,14.60
2018-05-17T22:06:18.102Z,14.02
2018-05-17T22:08:46.466Z,14.20
2018-05-17T22:11:14.070Z,15.10
2018-05-17T22:13:42.430Z,15.95
2018-05-17T22:16:10.014Z,14.60
2018-05-17T22:18:37.585Z,14.38
2018-05-17T22:21:05.174Z,16.23
2018-05-17T22:23:33.541Z,15.88
2018-05-17T22:26:01.126Z,14.95
2018-05-17T22:28:31.474Z,15.48
2018-05-17T22:30:59.814Z,13.73
2018-05-17T22:33:27.474Z,14.15
2018-05-17T22:35:55.154Z,13.95
2018-05-17T22:38:23.473Z,15.57
2018-05-17T22:40:51.053Z,16.35
2018-05-17T22:43:18.644Z,15.98
2018-05-17T22:45:46.206Z,15.68
2018-05-17T22:48:13.790Z,13.85
2018-05-17T22:50:42.993Z,16.25
2018-05-17T22:53:10.578Z,14.80
2018-05-17T22:55:38.917Z,17.45
2018-05-17T23:01:13.097Z,14.87
2018-05-17T23:03:40.703Z,14.95
2018-05-17T23:06:09.050Z,16.17
2018-05-17T23:08:36.641Z,17.40
2018-05-17T23:11:04.206Z,18.12
2018-05-17T23:13:31.806Z,15.75
2018-05-17T23:16:00.173Z,16.50
2018-05-17T23:18:27.793Z,15.18
2018-05-17T23:20:55.997Z,15.55
2018-05-17T23:23:23.602Z,16.33
2018-05-17T23:25:51.198Z,14.80
2018-05-17T23:28:18.864Z,14.25
2018-05-17T23:30:47.217Z,16.08
2018-05-17T23:33:14.800Z,15.43
2018-05-17T23:35:42.365Z,17.35
2018-05-17T23:38:10.709Z,18.40
2018-05-17T23:43:42.387Z,21.52
2018-05-17T23:46:09.969Z,22.17
2018-05-17T23:48:37.558Z,24.75
2018-05-17T23:51:05.881Z,25.40
2018-05-17T23:53:33.485Z,24.83
2018-05-17T23:56:01.046Z,24.35
2018-05-17T23:58:28.729Z,25.10
